Time;durP1;ratioP1;P1;durP2;ratioP2;P2;SDS_P1;SDS_P2;PMS_P1;PMS_P2;Temp;Humidity;BMP_temperature;BMP_pressure;BME280_temperature;BME280_humidity;BME280_pressure;Samples;Min_cycle;Max_cycle;Signal;HPM_P1;HPM_P2
2023/12/23 00:02:13;;;;;;;1.43;0.30;;;1.60;99.90;;;-0.52;100.00;98232.66;10475142;27;96585;-90
2023/12/23 00:07:17;;;;;;;0.77;0.30;;;1.60;99.90;;;-0.45;100.00;98243.34;10459424;27;97313;-92
2023/12/23 00:12:21;;;;;;;1.70;0.53;;;1.60;99.90;;;-0.44;100.00;98237.97;10475944;27;96830;-93
2023/12/23 00:17:24;;;;;;;0.40;0.20;;;1.60;99.90;;;-0.56;100.00;98206.03;10467157;27;96566;-93
2023/12/23 00:22:28;;;;;;;0.67;0.40;;;1.60;99.90;;;-0.61;100.00;98204.81;10455270;27;96500;-94
2023/12/23 00:27:31;;;;;;;0.40;0.10;;;1.60;99.90;;;-0.52;100.00;98185.69;10480394;27;97870;-94
2023/12/23 00:32:35;;;;;;;0.57;0.10;;;1.60;99.90;;;-0.53;100.00;98188.47;10472969;27;96396;-94
2023/12/23 00:37:38;;;;;;;0.13;0.10;;;1.50;99.90;;;-0.63;100.00;98155.41;10479789;27;96631;-94
2023/12/23 00:42:42;;;;;;;0.30;0.13;;;1.50;99.90;;;-0.66;100.00;98152.28;10467321;27;97173;-92
2023/12/23 00:47:45;;;;;;;0.40;0.20;;;1.50;99.90;;;-0.61;100.00;98173.53;10461871;27;96465;-91
2023/12/23 00:52:49;;;;;;;0.60;0.20;;;1.50;99.90;;;-0.57;100.00;98208.78;10461526;27;96618;-94
2023/12/23 00:57:52;;;;;;;1.27;0.20;;;1.50;99.90;;;-0.57;100.00;98214.00;10490214;27;96828;-91
2023/12/23 01:02:56;;;;;;;0.20;0.10;;;1.50;99.90;;;-0.56;100.00;98205.22;10488918;27;96526;-90
2023/12/23 01:07:59;;;;;;;0.70;0.27;;;1.50;99.90;;;-0.57;100.00;98230.47;10506386;27;96479;-92
2023/12/23 01:13:03;;;;;;;0.33;0.20;;;1.50;99.90;;;-0.57;100.00;98277.44;10480004;27;96559;-91
2023/12/23 01:18:06;;;;;;;1.63;0.30;;;1.40;99.90;;;-0.60;100.00;98263.84;10479591;27;96452;-91
2023/12/23 01:23:11;;;;;;;0.57;0.10;;;1.40;99.90;;;-0.63;100.00;98253.72;10466777;27;97908;-90
2023/12/23 01:28:14;;;;;;;0.30;0.10;;;1.40;99.90;;;-0.61;100.00;98265.66;10439094;27;96563;-90
2023/12/23 01:33:18;;;;;;;0.20;0.03;;;1.40;99.90;;;-0.59;100.00;98252.47;10485558;27;96623;-91
2023/12/23 01:38:21;;;;;;;0.00;0.00;;;1.40;99.90;;;-0.60;100.00;98243.84;10468265;27;96545;-92
2023/12/23 01:43:26;;;;;;;0.00;0.00;;;1.40;99.90;;;-0.62;100.00;98224.88;10465127;27;96553;-93
2023/12/23 01:48:35;;;;;;;1.83;0.20;;;1.40;99.90;;;-0.66;100.00;98246.19;10472876;27;98110;-93
2023/12/23 01:53:40;;;;;;;2.03;0.20;;;1.50;99.90;;;-0.60;100.00;98243.00;10495028;27;97976;-94
2023/12/23 01:58:44;;;;;;;0.73;0.00;;;1.50;99.90;;;-0.59;100.00;98260.31;10488553;27;96578;-92
2023/12/23 02:03:47;;;;;;;0.33;0.20;;;1.50;99.90;;;-0.63;100.00;98261.56;10483130;27;96851;-94
2023/12/23 02:08:51;;;;;;;0.70;0.10;;;1.50;99.90;;;-0.55;100.00;98303.38;10472263;27;96651;-92
2023/12/23 02:14:06;;;;;;;2.90;0.37;;;1.50;99.90;;;-0.54;100.00;98299.81;10470459;27;96722;-94
2023/12/23 02:19:09;;;;;;;2.70;0.40;;;1.50;99.90;;;-0.53;100.00;98282.41;10458540;27;96667;-95
2023/12/23 02:24:13;;;;;;;2.20;0.30;;;1.50;99.90;;;-0.44;100.00;98287.53;10480971;27;96607;-95
2023/12/23 02:29:18;;;;;;;1.13;0.23;;;1.60;99.90;;;-0.47;100.00;98281.81;10484291;27;96509;-91
2023/12/23 02:34:22;;;;;;;1.70;0.40;;;1.60;99.90;;;-0.32;100.00;98319.50;10458174;27;96579;-92
2023/12/23 02:39:25;;;;;;;1.23;0.20;;;1.70;99.90;;;-0.35;100.00;98291.91;10491202;27;96508;-92
2023/12/23 02:44:28;;;;;;;0.27;0.10;;;1.70;99.90;;;-0.36;100.00;98287.66;10499042;27;96523;-93
2023/12/23 02:49:32;;;;;;;0.63;0.20;;;1.70;99.90;;;-0.37;100.00;98304.25;10454717;27;96653;-92
2023/12/23 02:54:35;;;;;;;0.40;0.17;;;1.70;99.90;;;-0.30;100.00;98346.25;10463986;27;96560;-92
2023/12/23 02:59:38;;;;;;;0.20;0.20;;;1.70;99.90;;;-0.34;100.00;98335.31;10494919;27;96575;-92
2023/12/23 03:04:42;;;;;;;0.30;0.10;;;1.70;99.90;;;-0.39;100.00;98337.53;10474594;27;96994;-92
2023/12/23 03:09:45;;;;;;;0.30;0.10;;;1.80;99.90;;;-0.23;100.00;98355.19;10464348;27;96682;-92
2023/12/23 03:14:49;;;;;;;1.17;0.50;;;1.70;99.90;;;-0.31;100.00;98344.63;10467024;27;96576;-91
2023/12/23 03:19:55;;;;;;;0.40;0.30;;;1.80;99.90;;;-0.21;100.00;98373.31;10492028;27;96714;-91
2023/12/23 03:24:58;;;;;;;0.80;0.30;;;1.70;99.90;;;-0.23;100.00;98385.69;10478429;27;96510;-92
2023/12/23 03:30:03;;;;;;;0.70;0.30;;;1.80;99.90;;;-0.32;100.00;98390.78;10494847;27;97135;-92
2023/12/23 03:35:09;;;;;;;0.20;0.10;;;1.70;99.90;;;-0.23;100.00;98375.25;10460886;27;97007;-92
2023/12/23 03:40:12;;;;;;;0.00;0.00;;;1.70;99.90;;;-0.34;100.00;98335.31;10458097;27;96542;-91
2023/12/23 03:45:17;;;;;;;0.00;0.00;;;1.80;99.90;;;-0.19;100.00;98350.47;10480920;27;96554;-92
2023/12/23 03:50:20;;;;;;;0.17;0.10;;;1.80;99.90;;;-0.09;100.00;98353.88;10475922;27;96547;-93
2023/12/23 03:55:29;;;;;;;0.10;0.10;;;1.80;99.90;;;-0.08;100.00;98361.56;10475867;27;96662;-92
2023/12/23 04:00:33;;;;;;;0.60;0.00;;;1.90;99.90;;;-0.03;100.00;98355.91;10446521;27;96568;-92
2023/12/23 04:05:37;;;;;;;3.00;1.77;;;2.00;99.90;;;0.01;100.00;98346.81;10460547;27;97236;-91
2023/12/23 04:10:40;;;;;;;0.10;0.10;;;2.00;99.90;;;0.02;100.00;98330.19;10466355;27;96575;-92
2023/12/23 04:15:44;;;;;;;0.10;0.10;;;2.00;99.90;;;0.06;100.00;98330.69;10465413;27;96616;-90
2023/12/23 04:20:47;;;;;;;0.00;0.00;;;2.00;99.90;;;0.04;100.00;98309.94;10460368;27;97064;-92
2023/12/23 04:25:51;;;;;;;0.83;0.20;;;2.00;99.90;;;0.05;100.00;98308.97;10464940;27;96816;-92
2023/12/23 04:30:56;;;;;;;0.40;0.10;;;2.00;99.90;;;0.06;100.00;98328.94;10456400;27;96525;-91
2023/12/23 04:36:00;;;;;;;0.00;0.00;;;2.10;99.90;;;0.06;100.00;98321.09;10466037;27;96585;-90
2023/12/23 04:41:04;;;;;;;0.37;0.20;;;2.10;99.90;;;0.15;100.00;98343.69;10469027;27;97964;-89
2023/12/23 04:46:07;;;;;;;0.57;0.20;;;2.10;99.90;;;0.17;100.00;98362.66;10478438;27;97277;-91
2023/12/23 04:51:11;;;;;;;0.37;0.37;;;2.10;99.90;;;0.09;100.00;98346.91;10454923;27;97829;-90
2023/12/23 04:56:14;;;;;;;1.50;0.37;;;2.10;99.90;;;0.20;100.00;98364.97;10453454;27;96479;-90
2023/12/23 05:01:18;;;;;;;0.43;0.30;;;2.10;99.90;;;0.26;100.00;98384.47;10487894;27;96672;-91
2023/12/23 05:06:21;;;;;;;0.33;0.20;;;2.20;99.90;;;0.15;100.00;98393.31;10511216;27;96453;-92
2023/12/23 05:11:25;;;;;;;0.30;0.20;;;2.20;99.90;;;0.24;100.00;98413.38;10475467;27;96439;-92
2023/12/23 05:16:30;;;;;;;0.17;0.10;;;2.20;99.90;;;0.29;100.00;98443.44;10467564;27;96535;-91
2023/12/23 05:21:33;;;;;;;0.23;0.13;;;2.30;99.90;;;0.23;100.00;98448.25;10457530;27;96833;-92
2023/12/23 05:26:37;;;;;;;0.37;0.20;;;2.30;99.90;;;0.40;100.00;98479.81;10466040;27;96747;-91
2023/12/23 05:31:41;;;;;;;0.30;0.10;;;2.40;99.90;;;0.44;100.00;98496.88;10464250;27;96610;-91
2023/12/23 05:36:45;;;;;;;0.17;0.10;;;2.40;99.90;;;0.53;100.00;98511.66;10469615;27;97838;-89
2023/12/23 05:41:48;;;;;;;1.67;0.60;;;2.40;99.90;;;0.37;100.00;98480.94;10467458;27;96637;-92
2023/12/23 05:46:52;;;;;;;0.67;0.53;;;2.40;99.90;;;0.43;100.00;98521.34;10468372;27;96550;-89
2023/12/23 05:51:55;;;;;;;1.43;0.50;;;2.40;99.90;;;0.43;100.00;98547.50;10489618;27;96563;-92
2023/12/23 05:56:59;;;;;;;0.70;0.47;;;2.30;99.90;;;0.45;100.00;98525.47;10476676;27;97016;-91
2023/12/23 06:02:03;;;;;;;0.80;0.40;;;2.30;99.90;;;0.45;100.00;98516.81;10474706;27;96535;-91
2023/12/23 06:07:08;;;;;;;1.13;0.37;;;2.40;99.90;;;0.44;100.00;98520.38;10497291;27;96556;-91
2023/12/23 06:12:12;;;;;;;0.93;0.30;;;2.40;99.90;;;0.45;100.00;98546.38;10445410;27;97014;-92
2023/12/23 06:17:15;;;;;;;0.50;0.30;;;2.40;99.90;;;0.48;100.00;98540.00;10498764;27;97889;-92
2023/12/23 06:22:18;;;;;;;0.97;0.30;;;2.40;99.90;;;0.46;100.00;98524.50;10470500;27;96892;-94
2023/12/23 06:27:22;;;;;;;0.63;0.30;;;2.40;99.90;;;0.42;100.00;98561.50;10478811;27;96555;-91
2023/12/23 06:32:25;;;;;;;0.30;0.30;;;2.40;99.90;;;0.37;100.00;98584.66;10471716;27;96778;-90
2023/12/23 06:37:29;;;;;;;2.63;1.17;;;2.30;99.90;;;0.40;100.00;98585.16;10470027;27;96684;-89
2023/12/23 06:42:33;;;;;;;2.00;0.30;;;2.30;99.90;;;0.43;100.00;98631.13;10472721;27;96667;-89
2023/12/23 06:47:36;;;;;;;24.87;5.27;;;2.40;99.90;;;0.41;100.00;98619.97;10469517;27;96586;-92
2023/12/23 06:52:41;;;;;;;15.30;4.03;;;2.40;99.90;;;0.43;100.00;98625.91;10478764;27;97236;-90
2023/12/23 06:57:45;;;;;;;0.70;0.60;;;2.40;99.90;;;0.43;100.00;98638.97;10489216;27;96490;-89
2023/12/23 07:02:51;;;;;;;0.60;0.40;;;2.40;99.90;;;0.45;100.00;98640.44;10461277;27;96576;-89
2023/12/23 07:07:54;;;;;;;0.43;0.40;;;2.40;99.90;;;0.56;100.00;98660.38;10443520;27;97292;-88
2023/12/23 07:12:58;;;;;;;0.97;0.40;;;2.40;99.90;;;0.67;100.00;98659.38;10456542;27;97953;-89
2023/12/23 07:18:01;;;;;;;0.83;0.20;;;2.60;99.90;;;0.75;100.00;98678.59;10460530;27;96541;-91
2023/12/23 07:23:05;;;;;;;0.87;0.40;;;2.70;99.90;;;0.78;100.00;98701.88;10479913;27;96510;-90
2023/12/23 07:28:08;;;;;;;0.77;0.20;;;2.70;99.90;;;0.87;100.00;98720.28;10465907;27;97837;-90
2023/12/23 07:33:12;;;;;;;2.20;0.20;;;2.80;99.90;;;0.94;100.00;98743.09;10481526;27;96663;-88
2023/12/23 07:38:16;;;;;;;0.40;0.30;;;2.80;99.90;;;0.99;100.00;98750.53;10431437;27;97754;-90
2023/12/23 07:43:19;;;;;;;0.43;0.33;;;2.90;99.90;;;0.97;100.00;98748.06;10459593;27;96722;-88
2023/12/23 07:48:23;;;;;;;1.63;0.60;;;2.90;99.90;;;1.03;100.00;98770.22;10459201;27;96875;-88
2023/12/23 07:53:26;;;;;;;2.17;0.60;;;3.00;99.90;;;1.05;100.00;98779.56;10469178;27;97846;-92
2023/12/23 07:58:29;;;;;;;3.27;0.50;;;3.00;99.90;;;1.09;100.00;98787.97;10472344;27;97574;-90
2023/12/23 08:03:33;;;;;;;0.97;0.73;;;3.00;99.90;;;1.11;100.00;98804.34;10473236;27;96634;-90
2023/12/23 08:08:36;;;;;;;1.70;0.80;;;3.00;99.90;;;1.11;100.00;98806.94;10481428;27;96574;-90
2023/12/23 08:13:41;;;;;;;2.60;0.80;;;3.10;99.90;;;1.14;100.00;98826.75;10478995;27;96557;-92
2023/12/23 08:18:45;;;;;;;1.20;0.70;;;3.10;99.90;;;1.19;100.00;98846.31;10463541;27;97230;-88
2023/12/23 08:23:49;;;;;;;1.70;0.83;;;3.10;99.90;;;1.22;100.00;98855.69;10486219;27;97011;-89
2023/12/23 08:28:52;;;;;;;3.33;0.60;;;3.20;99.90;;;1.25;100.00;98869.28;10471281;27;96635;-89
2023/12/23 08:33:56;;;;;;;1.83;0.90;;;3.20;99.90;;;1.28;100.00;98881.28;10441198;27;96973;-89
2023/12/23 08:38:59;;;;;;;2.33;1.03;;;3.20;99.90;;;1.31;100.00;98876.56;10457927;27;96844;-91
2023/12/23 08:44:28;;;;;;;1.80;0.83;;;3.20;99.90;;;1.32;100.00;98865.16;10468516;27;96645;-90
2023/12/23 08:49:31;;;;;;;4.20;1.43;;;3.30;99.90;;;1.41;100.00;98894.06;10464480;27;97640;-89
2023/12/23 08:54:35;;;;;;;2.77;1.40;;;3.30;99.90;;;1.44;100.00;98902.47;10468352;27;96460;-91
2023/12/23 08:59:43;;;;;;;3.03;1.63;;;3.40;99.90;;;1.46;100.00;98915.41;10458451;27;97890;-90
2023/12/23 09:04:46;;;;;;;2.60;0.97;;;3.40;99.90;;;1.44;100.00;98914.72;10452929;27;96563;-88
2023/12/23 09:09:49;;;;;;;2.03;1.50;;;3.40;99.90;;;1.42;100.00;98927.94;10487637;27;96653;-89
2023/12/23 09:14:53;;;;;;;3.20;1.30;;;3.40;99.90;;;1.38;100.00;98915.28;10486344;27;96554;-88
2023/12/23 09:19:59;;;;;;;3.87;2.03;;;3.40;99.90;;;1.39;100.00;98911.72;10463729;27;96719;-86
2023/12/23 09:25:02;;;;;;;1.97;0.90;;;3.40;99.90;;;1.36;100.00;98912.81;10477317;27;97159;-85
2023/12/23 09:30:09;;;;;;;1.83;0.90;;;3.30;99.90;;;1.38;100.00;98925.75;10496700;27;97745;-88
2023/12/23 09:35:12;;;;;;;5.57;1.60;;;3.30;99.90;;;1.35;100.00;98916.38;10469734;27;97413;-86
2023/12/23 09:40:16;;;;;;;4.77;1.53;;;3.30;99.90;;;1.32;100.00;98880.88;10491318;27;96786;-90
2023/12/23 09:45:21;;;;;;;6.23;2.23;;;3.30;99.90;;;1.31;100.00;98894.91;10471091;27;96521;-87
2023/12/23 09:50:24;;;;;;;2.63;1.07;;;3.30;99.90;;;1.30;100.00;98885.41;10468996;27;98017;-86
2023/12/23 09:55:31;;;;;;;2.63;1.23;;;3.30;99.90;;;1.29;100.00;98912.53;10458176;27;97636;-92
2023/12/23 10:00:34;;;;;;;2.13;0.83;;;3.30;99.90;;;1.27;100.00;98924.94;10482388;27;96829;-92
2023/12/23 10:05:42;;;;;;;5.40;2.07;;;3.30;99.90;;;1.31;100.00;98941.19;10476166;27;96573;-87
2023/12/23 10:10:47;;;;;;;2.40;1.17;;;3.30;99.90;;;1.31;100.00;98935.94;10463150;27;96661;-82
2023/12/23 10:15:50;;;;;;;6.00;1.57;;;3.30;99.90;;;1.29;100.00;98916.94;10481986;27;96558;-83
2023/12/23 10:20:54;;;;;;;1.77;1.30;;;3.30;99.90;;;1.34;100.00;98930.44;10460433;27;96603;-86
2023/12/23 10:25:58;;;;;;;2.83;1.43;;;3.30;99.90;;;1.36;100.00;98938.16;10473732;27;97906;-87
2023/12/23 10:31:02;;;;;;;2.27;1.10;;;3.40;99.90;;;1.32;100.00;98933.22;10451728;27;97918;-86
2023/12/23 10:36:10;;;;;;;3.10;1.20;;;3.40;99.90;;;1.33;100.00;98929.63;10439824;27;96723;-87
2023/12/23 10:41:35;;;;;;;4.87;1.00;;;3.40;99.90;;;1.34;100.00;98933.06;10438164;27;97019;-84
2023/12/23 10:46:42;;;;;;;5.87;1.73;;;3.40;99.90;;;1.36;100.00;98938.16;10456247;27;97697;-83
2023/12/23 10:51:45;;;;;;;8.27;4.23;;;3.40;99.90;;;1.37;100.00;98930.16;10450256;27;96657;-89
2023/12/23 10:56:50;;;;;;;4.50;2.10;;;3.40;99.90;;;1.38;100.00;98916.13;10459690;27;96613;-89
2023/12/23 11:01:56;;;;;;;2.33;1.20;;;3.40;99.90;;;1.39;100.00;98925.63;10472905;27;97138;-86
2023/12/23 11:07:02;;;;;;;2.07;1.00;;;3.50;99.90;;;1.37;100.00;98895.31;10481309;27;97441;-84
2023/12/23 11:12:07;;;;;;;3.97;1.30;;;3.50;99.90;;;1.40;100.00;98905.50;10436284;27;97335;-85
2023/12/23 11:17:43;;;;;;;2.60;0.90;;;3.50;99.90;;;1.34;100.00;98899.88;10452517;27;97708;-85
2023/12/23 11:22:56;;;;;;;2.80;0.97;;;3.40;99.90;;;1.29;100.00;98891.59;10439721;27;96618;-85
2023/12/23 11:28:09;;;;;;;2.80;0.80;;;3.40;99.90;;;1.20;100.00;98884.63;10461124;27;96706;-87
2023/12/23 11:33:13;;;;;;;2.70;1.00;;;3.30;99.90;;;1.11;100.00;98890.66;10462740;27;97147;-86
2023/12/23 11:38:16;;;;;;;4.37;1.90;;;3.20;99.90;;;0.96;100.00;98871.13;10493617;27;96461;-86
2023/12/23 11:43:20;;;;;;;1.97;0.93;;;3.10;99.90;;;0.84;100.00;98867.84;10452441;27;96742;-87
2023/12/23 11:48:24;;;;;;;2.03;0.63;;;2.90;99.90;;;0.55;100.00;98877.47;10457179;27;96768;-86
2023/12/23 11:53:29;;;;;;;4.47;1.13;;;2.70;99.90;;;0.14;100.00;98858.44;10488378;27;97293;-86
2023/12/23 11:58:33;;;;;;;2.80;1.30;;;2.30;99.90;;;-0.12;100.00;98855.47;10467481;27;96673;-85
2023/12/23 12:03:36;;;;;;;8.60;2.40;;;2.00;99.90;;;-0.28;100.00;98837.69;10456332;27;96595;-86
2023/12/23 12:08:40;;;;;;;7.00;3.50;;;1.80;99.90;;;-0.38;100.00;98834.22;10450211;27;98061;-86
2023/12/23 12:13:46;;;;;;;3.57;1.20;;;1.70;99.90;;;-0.45;100.00;98826.09;10442729;27;97660;-87
2023/12/23 12:18:50;;;;;;;3.13;1.53;;;1.60;99.90;;;-0.49;100.00;98824.69;10447468;27;97308;-84
2023/12/23 12:23:57;;;;;;;4.27;1.10;;;1.50;99.90;;;-0.55;100.00;98805.16;10459161;27;96755;-86
2023/12/23 12:29:02;;;;;;;3.30;1.10;;;1.50;99.90;;;-0.57;100.00;98793.22;10468749;27;96682;-85
2023/12/23 12:34:06;;;;;;;3.17;1.57;;;1.40;99.90;;;-0.63;100.00;98784.13;10468602;27;97041;-86
2023/12/23 12:39:12;;;;;;;3.87;1.53;;;1.40;99.90;;;-0.63;100.00;98778.91;10453450;27;96876;-86
2023/12/23 12:44:16;;;;;;;5.27;1.77;;;1.40;99.90;;;-0.65;100.00;98753.94;10457111;27;96664;-86
2023/12/23 12:49:22;;;;;;;2.13;1.00;;;1.40;99.90;;;-0.62;100.00;98748.44;10437446;27;97829;-84
2023/12/23 12:54:26;;;;;;;3.40;1.60;;;1.40;99.90;;;-0.64;100.00;98761.63;10454394;27;96937;-84
2023/12/23 12:59:30;;;;;;;3.87;1.70;;;1.50;99.90;;;-0.63;100.00;98772.88;10438221;27;96711;-83
2023/12/23 13:04:34;;;;;;;3.73;1.60;;;1.50;99.90;;;-0.60;100.00;98801.31;10455430;27;97537;-92
2023/12/23 13:09:42;;;;;;;18.97;6.53;;;1.50;99.90;;;-0.62;100.00;98811.06;10454470;27;96575;-85
2023/12/23 13:14:45;;;;;;;5.87;2.63;;;1.50;99.90;;;-0.65;100.00;98814.75;10488827;27;96537;-86
2023/12/23 13:19:49;;;;;;;2.43;1.30;;;1.40;99.90;;;-0.76;100.00;98808.81;10467934;27;96881;-86
2023/12/23 13:24:53;;;;;;;3.10;1.27;;;1.40;99.90;;;-0.73;100.00;98818.97;10470405;27;96583;-86
2023/12/23 13:29:56;;;;;;;9.67;4.37;;;1.30;99.90;;;-0.76;100.00;98817.44;10474192;27;96639;-87
2023/12/23 13:35:01;;;;;;;10.07;5.03;;;1.30;99.90;;;-0.76;100.00;98816.63;10479296;27;96672;-88
2023/12/23 13:40:06;;;;;;;7.43;4.53;;;1.30;99.90;;;-0.85;100.00;98800.78;10466994;27;97663;-88
2023/12/23 13:45:09;;;;;;;3.90;2.67;;;1.30;99.90;;;-0.83;100.00;98811.94;10459581;27;97683;-89
2023/12/23 13:50:13;;;;;;;14.50;6.30;;;1.20;99.90;;;-0.85;100.00;98795.56;10498186;27;97048;-90
2023/12/23 13:55:17;;;;;;;15.00;4.10;;;1.20;99.90;;;-0.83;100.00;98793.66;10499241;27;96765;-89
2023/12/23 14:00:21;;;;;;;6.23;3.00;;;1.20;99.90;;;-0.92;100.00;98783.19;10519146;27;96573;-87
2023/12/23 14:05:25;;;;;;;10.10;4.90;;;1.20;99.90;;;-0.90;100.00;98795.16;10491182;27;96381;-86
2023/12/23 14:10:29;;;;;;;20.20;9.63;;;1.20;99.90;;;-0.83;100.00;98798.88;10490882;27;96569;-88
2023/12/23 14:15:32;;;;;;;9.33;4.10;;;1.30;99.90;;;-0.80;100.00;98803.00;10469078;27;97152;-88
2023/12/23 14:20:36;;;;;;;6.30;3.40;;;1.30;99.90;;;-0.84;100.00;98789.41;10470446;27;96579;-86
2023/12/23 14:25:39;;;;;;;4.00;2.30;;;1.30;99.90;;;-0.82;100.00;98799.72;10453848;27;96579;-86
2023/12/23 14:30:43;;;;;;;5.63;3.03;;;1.20;99.90;;;-0.82;100.00;98808.34;10464332;27;97033;-86
2023/12/23 14:35:49;;;;;;;36.90;12.90;;;1.20;99.90;;;-0.82;100.00;98805.75;10463190;27;96620;-86
2023/12/23 14:40:53;;;;;;;14.10;6.20;;;1.20;99.90;;;-0.79;100.00;98814.25;10478324;27;97803;-86
2023/12/23 14:45:56;;;;;;;10.40;4.73;;;1.30;99.90;;;-0.81;100.00;98817.84;10512475;27;96701;-85
2023/12/23 14:51:00;;;;;;;11.80;5.80;;;1.30;99.90;;;-0.81;100.00;98814.41;10483213;27;96520;-85
2023/12/23 14:56:03;;;;;;;8.60;3.70;;;1.30;99.90;;;-0.80;100.00;98818.66;10463464;27;97574;-84
2023/12/23 15:01:07;;;;;;;10.73;4.73;;;1.30;99.90;;;-0.81;100.00;98814.41;10488544;27;96534;-87
2023/12/23 15:06:10;;;;;;;8.23;4.50;;;1.30;99.90;;;-0.81;100.00;98820.44;10468867;27;96470;-86
2023/12/23 15:11:14;;;;;;;7.20;3.70;;;1.30;99.90;;;-0.82;100.00;98818.78;10465071;27;96843;-86
2023/12/23 15:16:18;;;;;;;7.37;3.67;;;1.30;99.90;;;-0.83;100.00;98824.97;10473631;27;97105;-89
2023/12/23 15:21:21;;;;;;;10.73;5.40;;;1.30;99.90;;;-0.89;100.00;98809.84;10470369;27;96627;-86
2023/12/23 15:26:27;;;;;;;11.73;6.87;;;1.30;99.90;;;-0.86;100.00;98825.22;10463508;27;96670;-84
2023/12/23 15:31:31;;;;;;;7.37;3.53;;;1.30;99.90;;;-0.84;100.00;98825.06;10472342;27;96809;-84
2023/12/23 15:36:37;;;;;;;13.97;6.97;;;1.30;99.90;;;-0.83;100.00;98831.97;10470743;27;97220;-83
2023/12/23 15:41:40;;;;;;;15.90;7.50;;;1.30;99.90;;;-0.84;100.00;98820.72;10452448;27;96954;-82
2023/12/23 15:46:44;;;;;;;18.97;9.20;;;1.30;99.90;;;-0.84;100.00;98828.53;10463930;27;96646;-82
2023/12/23 15:51:47;;;;;;;26.10;11.33;;;1.30;99.90;;;-0.82;100.00;98831.84;10466250;27;96527;-82
2023/12/23 15:56:52;;;;;;;21.57;9.50;;;1.20;99.90;;;-0.82;100.00;98833.63;10471656;27;96915;-81
2023/12/23 16:01:55;;;;;;;39.00;15.97;;;1.30;99.90;;;-0.81;100.00;98827.44;10459791;27;97347;-81
2023/12/23 16:06:59;;;;;;;20.33;8.83;;;1.30;99.90;;;-0.81;100.00;98827.44;10434792;27;96540;-81
2023/12/23 16:12:02;;;;;;;16.70;6.47;;;1.30;99.90;;;-0.84;100.00;98822.47;10462842;27;96705;-90
2023/12/23 16:17:06;;;;;;;29.63;10.43;;;1.30;99.90;;;-0.82;100.00;98823.19;10464196;27;96786;-89
2023/12/23 16:22:09;;;;;;;17.33;8.87;;;1.30;99.90;;;-0.93;100.00;98805.00;10465256;27;97891;-87
2023/12/23 16:27:13;;;;;;;18.53;9.03;;;1.30;99.90;;;-0.83;100.00;98813.72;10433970;27;97828;-87
2023/12/23 16:32:21;;;;;;;24.23;10.83;;;1.30;99.90;;;-0.85;100.00;98798.16;10463891;27;96643;-89
2023/12/23 16:37:24;;;;;;;25.30;10.93;;;1.20;99.90;;;-0.86;100.00;98787.88;10453736;27;96811;-88
2023/12/23 16:42:34;;;;;;;23.17;10.97;;;1.30;99.90;;;-0.91;100.00;98784.81;10465377;27;96911;-85
2023/12/23 16:47:37;;;;;;;34.23;11.70;;;1.20;99.90;;;-0.94;100.00;98780.72;10463064;27;97872;-86
2023/12/23 16:52:41;;;;;;;19.47;8.90;;;1.20;99.90;;;-0.87;100.00;98792.28;10466481;27;97793;-86
2023/12/23 16:57:44;;;;;;;22.20;9.93;;;1.20;99.90;;;-0.92;100.00;98794.44;10462670;27;97805;-86
2023/12/23 17:02:47;;;;;;;44.97;15.13;;;1.20;99.90;;;-0.91;100.00;98798.69;10427607;27;97163;-83
2023/12/23 17:07:51;;;;;;;49.73;16.80;;;1.20;99.90;;;-0.90;100.00;98804.72;10446921;27;96646;-80
2023/12/23 17:12:54;;;;;;;39.77;15.10;;;1.20;99.90;;;-0.88;100.00;98818.50;10450227;27;96959;-80
2023/12/23 17:17:59;;;;;;;44.33;16.83;;;1.20;99.90;;;-0.91;100.00;98822.16;10451580;27;97902;-79
2023/12/23 17:23:03;;;;;;;45.03;16.40;;;1.20;99.90;;;-0.88;100.00;98845.38;10438582;27;96678;-80
2023/12/23 17:28:07;;;;;;;25.33;12.20;;;1.20;99.90;;;-0.89;100.00;98856.78;10475060;27;96865;-79
2023/12/23 17:33:15;;;;;;;30.40;13.60;;;1.20;99.90;;;-0.87;100.00;98854.88;10474766;27;96555;-80
2023/12/23 17:38:19;;;;;;;25.70;11.43;;;1.20;99.90;;;-0.86;100.00;98848.69;10469127;27;96492;-79
2023/12/23 17:43:22;;;;;;;27.53;11.37;;;1.20;99.90;;;-0.87;100.00;98847.03;10474879;27;97997;-79
2023/12/23 17:48:25;;;;;;;34.20;14.63;;;1.20;99.90;;;-0.87;100.00;98839.22;10484225;27;96736;-80
2023/12/23 17:53:29;;;;;;;46.40;17.80;;;1.20;99.90;;;-0.85;100.00;98832.06;10479860;27;97760;-80
2023/12/23 17:58:33;;;;;;;43.37;15.20;;;1.30;99.90;;;-0.84;100.00;98835.50;10484237;27;96581;-81
2023/12/23 18:03:36;;;;;;;49.00;20.57;;;1.20;99.90;;;-0.85;100.00;98842.50;10471952;27;97714;-80
2023/12/23 18:08:39;;;;;;;33.67;15.13;;;1.30;99.90;;;-0.84;100.00;98851.16;10476429;27;96632;-80
2023/12/23 18:13:43;;;;;;;38.50;15.70;;;1.30;99.90;;;-0.85;100.00;98844.28;10480159;27;96611;-79
2023/12/23 18:18:46;;;;;;;27.03;11.20;;;1.20;99.90;;;-0.84;100.00;98844.19;10474303;27;97838;-80
2023/12/23 18:23:49;;;;;;;15.03;7.77;;;1.30;99.90;;;-0.84;100.00;98838.97;10482784;27;96607;-79
2023/12/23 18:28:53;;;;;;;20.37;7.07;;;1.30;99.90;;;-0.82;100.00;98837.06;10470186;27;97064;-80
2023/12/23 18:33:59;;;;;;;12.97;4.87;;;1.30;99.90;;;-0.81;100.00;98851.75;10468665;27;96488;-80
2023/12/23 18:39:03;;;;;;;10.67;3.70;;;1.30;99.90;;;-0.82;100.00;98857.09;10474287;27;96556;-80
2023/12/23 18:44:06;;;;;;;9.10;3.90;;;1.30;99.90;;;-0.81;100.00;98864.78;10460383;27;97071;-81
2023/12/23 18:49:10;;;;;;;4.50;1.93;;;1.30;99.90;;;-0.80;100.00;98855.16;10474959;27;96524;-80
2023/12/23 18:54:14;;;;;;;4.30;1.97;;;1.30;99.90;;;-0.79;100.00;98876.88;10472101;27;96513;-80
2023/12/23 18:59:18;;;;;;;3.90;1.70;;;1.30;99.90;;;-0.81;100.00;98870.00;10476975;27;97878;-80
2023/12/23 19:04:22;;;;;;;4.37;1.80;;;1.30;99.90;;;-0.77;100.00;98880.19;10468660;27;98079;-80
2023/12/23 19:09:25;;;;;;;4.17;1.60;;;1.30;99.90;;;-0.77;100.00;98890.63;10481163;27;96884;-80
2023/12/23 19:14:29;;;;;;;3.27;1.30;;;1.30;99.90;;;-0.76;100.00;98900.09;10468646;27;98485;-81
2023/12/23 19:19:32;;;;;;;1.83;1.10;;;1.30;99.90;;;-0.74;100.00;98896.41;10453569;27;97122;-82
2023/12/23 19:24:36;;;;;;;2.67;1.10;;;1.30;99.90;;;-0.71;100.00;98901.38;10445353;27;96638;-84
2023/12/23 19:29:41;;;;;;;4.57;1.13;;;1.30;99.90;;;-0.72;100.00;98899.72;10457360;27;96511;-85
2023/12/23 19:34:44;;;;;;;1.80;0.87;;;1.30;99.90;;;-0.70;100.00;98907.41;10431510;27;98282;-84
2023/12/23 19:39:50;;;;;;;1.10;0.60;;;1.30;99.90;;;-0.64;100.00;98925.16;10441239;27;96912;-84
2023/12/23 19:45:06;;;;;;;1.07;0.67;;;1.40;99.90;;;-0.63;100.00;98932.03;10432074;27;96558;-85
2023/12/23 19:50:09;;;;;;;1.10;0.70;;;1.40;99.90;;;-0.60;100.00;98935.22;10449127;27;97006;-86
2023/12/23 19:55:13;;;;;;;1.23;0.70;;;1.40;99.90;;;-0.55;100.00;98938.25;10469936;27;97193;-88
2023/12/23 20:00:17;;;;;;;2.00;1.13;;;1.40;99.90;;;-0.60;100.00;98945.66;10470163;27;96763;-89
2023/12/23 20:05:20;;;;;;;3.93;2.07;;;1.50;99.90;;;-0.53;100.00;98945.16;10448913;27;96843;-91
2023/12/23 20:10:24;;;;;;;4.13;1.53;;;1.50;99.90;;;-0.45;100.00;98961.81;10440205;27;97914;-88
2023/12/23 20:15:27;;;;;;;6.03;1.80;;;1.50;99.90;;;-0.45;100.00;98961.81;10462457;27;97892;-89
2023/12/23 20:20:30;;;;;;;1.73;1.03;;;1.60;99.90;;;-0.39;100.00;98986.56;10469428;27;96566;-90
2023/12/23 20:25:34;;;;;;;1.20;0.70;;;1.60;99.90;;;-0.37;100.00;98993.31;10455754;27;97157;-90
2023/12/23 20:30:38;;;;;;;2.50;1.07;;;1.60;99.90;;;-0.45;100.00;98977.47;10465854;27;97223;-89
2023/12/23 20:35:42;;;;;;;1.87;1.20;;;1.60;99.90;;;-0.32;100.00;99000.75;10455549;27;96804;-87
2023/12/23 20:40:46;;;;;;;2.53;1.20;;;1.70;99.90;;;-0.31;100.00;99010.25;10458613;27;96590;-88
2023/12/23 20:45:50;;;;;;;1.20;0.60;;;1.70;99.90;;;-0.30;100.00;99027.56;10443882;27;97949;-87
2023/12/23 20:50:54;;;;;;;1.37;0.60;;;1.70;99.90;;;-0.30;100.00;99025.81;10455023;27;96471;-86
2023/12/23 20:55:59;;;;;;;0.33;0.20;;;1.70;99.90;;;-0.29;100.00;99026.63;10447519;27;96649;-86
2023/12/23 21:01:06;;;;;;;0.30;0.17;;;1.70;99.90;;;-0.30;100.00;99025.81;10477587;27;96751;-87
2023/12/23 21:06:10;;;;;;;0.70;0.30;;;1.70;99.90;;;-0.24;100.00;99034.91;10478293;27;97930;-87